Time;durP1;ratioP1;P1;durP2;ratioP2;P2;SDS_P1;SDS_P2;PMS_P1;PMS_P2;Temp;Humidity;BMP_temperature;BMP_pressure;BME280_temperature;BME280_humidity;BME280_pressure;Samples;Min_cycle;Max_cycle;Signal;HPM_P1;HPM_P2
2024/04/02 00:00:44;;;;;;;0.00;0.00;;;8.60;100.00;;;;;;5083216;28;20056;-70
2024/04/02 00:03:11;;;;;;;0.00;0.00;;;8.60;100.00;;;;;;5076093;28;20048;-70
2024/04/02 00:05:39;;;;;;;0.08;0.08;;;8.60;100.00;;;;;;5067230;28;20621;-70
2024/04/02 00:08:06;;;;;;;0.00;0.00;;;8.60;100.00;;;;;;5063814;28;20060;-70
2024/04/02 00:10:35;;;;;;;0.00;0.00;;;8.60;100.00;;;;;;5115057;27;20047;-70
2024/04/02 00:13:02;;;;;;;0.00;0.00;;;8.60;100.00;;;;;;5103100;27;20048;-70
2024/04/02 00:15:28;;;;;;;0.00;0.00;;;8.60;100.00;;;;;;5079616;28;20043;-70
2024/04/02 00:17:54;;;;;;;0.57;0.57;;;8.60;100.00;;;;;;5080688;28;20048;-71
2024/04/02 00:20:22;;;;;;;0.00;0.00;;;8.60;100.00;;;;;;5066777;28;20059;-70
2024/04/02 00:22:48;;;;;;;0.00;0.00;;;8.60;100.00;;;;;;5083544;28;20108;-71
2024/04/02 00:25:14;;;;;;;0.00;0.00;;;8.60;100.00;;;;;;5066070;28;20836;-70
2024/04/02 00:27:40;;;;;;;0.00;0.00;;;8.60;100.00;;;;;;5083002;28;20108;-70
2024/04/02 00:30:06;;;;;;;0.00;0.00;;;8.50;100.00;;;;;;5065941;28;20048;-71
2024/04/02 00:32:33;;;;;;;0.00;0.00;;;8.60;100.00;;;;;;5087708;28;20492;-70
2024/04/02 00:34:59;;;;;;;0.00;0.00;;;8.60;100.00;;;;;;5082589;28;20044;-70
2024/04/02 00:37:25;;;;;;;0.00;0.00;;;8.60;100.00;;;;;;5082432;28;20054;-70
2024/04/02 00:39:51;;;;;;;0.00;0.00;;;8.60;100.00;;;;;;5066798;28;20062;-71
2024/04/02 00:42:17;;;;;;;0.00;0.00;;;8.50;100.00;;;;;;5065544;28;20492;-71
2024/04/02 00:44:43;;;;;;;1.95;0.63;;;8.50;100.00;;;;;;5073740;28;20665;-71
2024/04/02 00:47:11;;;;;;;0.00;0.00;;;8.50;100.00;;;;;;5081912;28;20132;-71
2024/04/02 00:49:39;;;;;;;0.00;0.00;;;8.50;100.00;;;;;;5082284;28;20044;-71
2024/04/02 00:52:05;;;;;;;0.00;0.00;;;8.50;100.00;;;;;;5082115;28;20052;-71
2024/04/02 00:54:32;;;;;;;0.00;0.00;;;8.50;100.00;;;;;;5082167;28;20097;-71
2024/04/02 00:56:58;;;;;;;0.10;0.10;;;8.50;100.00;;;;;;5082221;28;20044;-71
2024/04/02 00:59:24;;;;;;;0.00;0.00;;;8.50;100.00;;;;;;5066053;28;20136;-71
2024/04/02 01:01:51;;;;;;;0.00;0.00;;;8.50;100.00;;;;;;5065569;28;20587;-71
2024/04/02 01:04:18;;;;;;;0.00;0.00;;;8.50;100.00;;;;;;5064967;28;20511;-71
2024/04/02 01:06:45;;;;;;;0.00;0.00;;;8.50;100.00;;;;;;5081987;28;21026;-71
2024/04/02 01:09:12;;;;;;;0.00;0.00;;;8.50;100.00;;;;;;5082621;28;20066;-71
2024/04/02 01:11:39;;;;;;;0.00;0.00;;;8.50;100.00;;;;;;5073522;28;20048;-71
2024/04/02 01:14:05;;;;;;;0.00;0.00;;;8.50;100.00;;;;;;5065235;28;20056;-71
2024/04/02 01:16:31;;;;;;;0.00;0.00;;;8.50;100.00;;;;;;5082127;28;20071;-71
2024/04/02 01:18:57;;;;;;;0.00;0.00;;;8.60;100.00;;;;;;5084502;28;20052;-71
2024/04/02 01:21:22;;;;;;;0.00;0.00;;;8.60;100.00;;;;;;5068477;28;20059;-71
2024/04/02 01:23:48;;;;;;;0.00;0.00;;;8.60;100.00;;;;;;5080116;28;20105;-70
2024/04/02 01:26:15;;;;;;;0.00;0.00;;;8.60;100.00;;;;;;5080720;28;20068;-71
2024/04/02 01:28:40;;;;;;;0.08;0.08;;;8.60;100.00;;;;;;5076514;28;20044;-70
2024/04/02 01:31:07;;;;;;;0.05;0.05;;;8.60;100.00;;;;;;5085405;28;20051;-70
2024/04/02 01:33:32;;;;;;;0.03;0.03;;;8.70;100.00;;;;;;5083793;28;20048;-70
2024/04/02 01:35:58;;;;;;;0.00;0.00;;;8.70;100.00;;;;;;5065767;28;20058;-70
2024/04/02 01:38:24;;;;;;;0.00;0.00;;;8.60;100.00;;;;;;5066824;28;20731;-71
2024/04/02 01:40:51;;;;;;;0.00;0.00;;;8.60;100.00;;;;;;5064058;28;20141;-71
2024/04/02 01:43:17;;;;;;;0.00;0.00;;;8.60;100.00;;;;;;5058911;28;20060;-71
2024/04/02 01:45:42;;;;;;;0.00;0.00;;;8.60;100.00;;;;;;5091829;28;20048;-70
2024/04/02 01:48:08;;;;;;;0.00;0.00;;;8.60;100.00;;;;;;5083199;28;20048;-70
2024/04/02 01:50:34;;;;;;;0.00;0.00;;;8.60;100.00;;;;;;5065975;28;20168;-70
2024/04/02 01:53:00;;;;;;;0.00;0.00;;;8.60;100.00;;;;;;5082246;28;20117;-70
2024/04/02 01:55:26;;;;;;;0.00;0.00;;;8.50;100.00;;;;;;5084000;28;20052;-71
2024/04/02 01:57:52;;;;;;;0.00;0.00;;;8.50;100.00;;;;;;5064513;28;20056;-70
2024/04/02 02:00:18;;;;;;;0.00;0.00;;;8.50;100.00;;;;;;5073843;28;20048;-70
2024/04/02 02:02:44;;;;;;;0.00;0.00;;;8.50;100.00;;;;;;5082519;28;20052;-70
2024/04/02 02:05:10;;;;;;;0.00;0.00;;;8.40;100.00;;;;;;5079841;28;20063;-70
2024/04/02 02:07:36;;;;;;;0.00;0.00;;;8.40;100.00;;;;;;5059529;28;20057;-70
2024/04/02 02:10:01;;;;;;;0.10;0.10;;;8.40;100.00;;;;;;5083905;28;20113;-71
2024/04/02 02:12:27;;;;;;;0.00;0.00;;;8.40;100.00;;;;;;5088587;28;20348;-71
2024/04/02 02:14:53;;;;;;;0.00;0.00;;;8.40;100.00;;;;;;5081378;28;20040;-70
2024/04/02 02:17:19;;;;;;;0.00;0.00;;;8.40;100.00;;;;;;5083747;28;20486;-71
2024/04/02 02:19:45;;;;;;;0.00;0.00;;;8.40;100.00;;;;;;5092810;28;20066;-71
2024/04/02 02:22:11;;;;;;;0.00;0.00;;;8.40;100.00;;;;;;5072685;28;20048;-70
2024/04/02 02:24:36;;;;;;;0.00;0.00;;;8.40;100.00;;;;;;5079556;28;20043;-70
2024/04/02 02:27:03;;;;;;;0.00;0.00;;;8.40;100.00;;;;;;5085771;28;20105;-70
2024/04/02 02:29:29;;;;;;;0.00;0.00;;;8.40;100.00;;;;;;5084510;28;20056;-71
2024/04/02 02:31:55;;;;;;;0.00;0.00;;;8.40;100.00;;;;;;5066528;28;20121;-71
2024/04/02 02:34:21;;;;;;;0.00;0.00;;;8.40;100.00;;;;;;5067074;28;20101;-70
2024/04/02 02:36:50;;;;;;;0.00;0.00;;;8.40;100.00;;;;;;5084344;28;20056;-71
2024/04/02 02:39:15;;;;;;;0.00;0.00;;;8.40;100.00;;;;;;5068242;28;20056;-71
2024/04/02 02:41:45;;;;;;;2.20;0.85;;;8.40;100.00;;;;;;5090550;28;20245;-71
2024/04/02 02:44:11;;;;;;;0.00;0.00;;;8.40;100.00;;;;;;5085782;28;20053;-71
2024/04/02 02:46:36;;;;;;;0.00;0.00;;;8.40;100.00;;;;;;5084434;28;20523;-71
2024/04/02 02:49:02;;;;;;;0.00;0.00;;;8.40;100.00;;;;;;5083897;28;20044;-71
2024/04/02 02:51:28;;;;;;;0.00;0.00;;;8.30;100.00;;;;;;5084920;28;20119;-71
2024/04/02 02:53:54;;;;;;;0.00;0.00;;;8.30;100.00;;;;;;5067738;28;20060;-71
2024/04/02 02:56:22;;;;;;;0.00;0.00;;;8.30;100.00;;;;;;5085983;28;20090;-70
2024/04/02 02:58:52;;;;;;;0.00;0.00;;;8.30;100.00;;;;;;5084205;28;20055;-71
2024/04/02 03:01:18;;;;;;;0.10;0.10;;;8.30;100.00;;;;;;5067697;28;20044;-71
2024/04/02 03:03:53;;;;;;;0.00;0.00;;;8.30;100.00;;;;;;5068256;28;20051;-71
2024/04/02 03:06:19;;;;;;;;;;;8.30;100.00;;;;;;5082938;28;20063;-71
2024/04/02 03:08:45;;;;;;;0.00;0.00;;;8.30;100.00;;;;;;5058633;28;19924;-71
2024/04/02 03:11:11;;;;;;;0.00;0.00;;;8.30;100.00;;;;;;5093978;28;20675;-71
2024/04/02 03:13:37;;;;;;;0.00;0.00;;;8.20;100.00;;;;;;5066775;28;20579;-71
2024/04/02 03:16:04;;;;;;;0.00;0.00;;;8.20;100.00;;;;;;5082511;28;20415;-71
2024/04/02 03:18:30;;;;;;;0.00;0.00;;;8.20;100.00;;;;;;5083794;28;20052;-71
2024/04/02 03:20:59;;;;;;;0.00;0.00;;;8.10;100.00;;;;;;5078658;28;20126;-71
2024/04/02 03:23:28;;;;;;;0.00;0.00;;;8.10;100.00;;;;;;5072188;28;20056;-71
2024/04/02 03:26:00;;;;;;;0.55;0.55;;;8.10;100.00;;;;;;5069895;28;20499;-71
2024/04/02 03:28:28;;;;;;;0.00;0.00;;;8.10;100.00;;;;;;5077755;28;20044;-71
2024/04/02 03:30:58;;;;;;;0.00;0.00;;;8.10;100.00;;;;;;5086952;28;20118;-71
2024/04/02 03:33:26;;;;;;;0.20;0.20;;;8.00;100.00;;;;;;5082406;28;20047;-72
2024/04/02 03:35:52;;;;;;;0.00;0.00;;;8.00;100.00;;;;;;5067814;28;20062;-71
2024/04/02 03:38:18;;;;;;;0.00;0.00;;;8.00;100.00;;;;;;5090094;28;20055;-71
2024/04/02 03:40:44;;;;;;;0.00;0.00;;;8.00;100.00;;;;;;5067758;28;20048;-71
2024/04/02 03:43:10;;;;;;;0.00;0.00;;;8.00;100.00;;;;;;5078696;28;20067;-71
2024/04/02 03:45:43;;;;;;;0.00;0.00;;;8.00;100.00;;;;;;5069194;28;20056;-71
2024/04/02 03:48:09;;;;;;;0.00;0.00;;;7.90;100.00;;;;;;5067860;28;20636;-71
2024/04/02 03:50:36;;;;;;;0.00;0.00;;;8.00;100.00;;;;;;5067676;28;20056;-71
2024/04/02 03:53:03;;;;;;;0.00;0.00;;;7.90;100.00;;;;;;5084116;28;20578;-71
2024/04/02 03:55:36;;;;;;;0.00;0.00;;;7.90;100.00;;;;;;5083980;28;20048;-71
2024/04/02 03:58:03;;;;;;;0.00;0.00;;;7.90;100.00;;;;;;5066823;28;20051;-71
2024/04/02 04:00:29;;;;;;;0.00;0.00;;;7.90;100.00;;;;;;5083657;28;20047;-71
2024/04/02 04:02:56;;;;;;;0.75;0.60;;;7.90;100.00;;;;;;5066789;28;20060;-72
2024/04/02 04:05:23;;;;;;;0.00;0.00;;;8.00;100.00;;;;;;5084031;28;20532;-71
2024/04/02 04:07:49;;;;;;;0.00;0.00;;;8.00;100.00;;;;;;5083325;28;20044;-71
2024/04/02 04:10:17;;;;;;;0.13;0.13;;;8.00;100.00;;;;;;5084021;28;20113;-71
2024/04/02 04:12:44;;;;;;;0.00;0.00;;;8.00;100.00;;;;;;5068509;28;20499;-71
2024/04/02 04:15:10;;;;;;;0.00;0.00;;;8.00;100.00;;;;;;5083145;28;20113;-71
2024/04/02 04:17:36;;;;;;;0.45;0.45;;;8.10;100.00;;;;;;5080851;28;20528;-71
2024/04/02 04:20:02;;;;;;;0.00;0.00;;;8.00;100.00;;;;;;5083532;28;20056;-71
2024/04/02 04:22:28;;;;;;;0.00;0.00;;;8.10;100.00;;;;;;5068692;28;20105;-71
2024/04/02 04:25:01;;;;;;;0.00;0.00;;;8.00;100.00;;;;;;5067866;28;20051;-72
2024/04/02 04:27:36;;;;;;;0.00;0.00;;;8.10;100.00;;;;;;5112562;27;20093;-71
2024/04/02 04:30:04;;;;;;;0.00;0.00;;;8.10;100.00;;;;;;5066637;28;20055;-71
2024/04/02 04:32:30;;;;;;;0.00;0.00;;;8.10;100.00;;;;;;5083273;28;20101;-72
2024/04/02 04:34:57;;;;;;;0.00;0.00;;;8.00;100.00;;;;;;5084594;28;20056;-71
2024/04/02 04:37:23;;;;;;;0.20;0.15;;;8.00;100.00;;;;;;5095110;28;20058;-72
2024/04/02 04:39:49;;;;;;;0.00;0.00;;;8.00;100.00;;;;;;5118439;27;20056;-72
2024/04/02 04:42:14;;;;;;;0.00;0.00;;;8.00;100.00;;;;;;5083543;28;20048;-72
2024/04/02 04:44:44;;;;;;;0.00;0.00;;;8.00;100.00;;;;;;5082444;28;20054;-72
2024/04/02 04:47:11;;;;;;;0.00;0.00;;;8.10;100.00;;;;;;5085220;28;20052;-71
2024/04/02 04:49:37;;;;;;;0.00;0.00;;;8.10;100.00;;;;;;5083546;28;20412;-71
2024/04/02 04:52:04;;;;;;;0.00;0.00;;;8.00;100.00;;;;;;5082815;28;20059;-71
2024/04/02 04:54:30;;;;;;;0.00;0.00;;;8.10;100.00;;;;;;5083335;28;20105;-71
2024/04/02 04:56:56;;;;;;;0.00;0.00;;;8.10;100.00;;;;;;5082737;28;20052;-72
2024/04/02 04:59:22;;;;;;;0.22;0.22;;;8.10;100.00;;;;;;5087890;28;20165;-71
2024/04/02 05:01:48;;;;;;;0.00;0.00;;;8.10;100.00;;;;;;5085879;28;20527;-72
2024/04/02 05:04:14;;;;;;;0.00;0.00;;;8.20;100.00;;;;;;5073899;28;20074;-71
2024/04/02 05:06:42;;;;;;;0.00;0.00;;;8.20;100.00;;;;;;5082623;28;20108;-71
2024/04/02 05:09:11;;;;;;;0.00;0.00;;;8.20;100.00;;;;;;5076819;28;20047;-75
2024/04/02 05:11:38;;;;;;;0.00;0.00;;;8.20;100.00;;;;;;5083449;28;20060;-77
2024/04/02 05:14:03;;;;;;;0.00;0.00;;;8.30;100.00;;;;;;5085010;28;20052;-71
2024/04/02 05:16:30;;;;;;;0.00;0.00;;;8.30;100.00;;;;;;5082272;28;20190;-74
2024/04/02 05:18:55;;;;;;;0.45;0.38;;;8.30;100.00;;;;;;5081098;28;20052;-75
2024/04/02 05:21:22;;;;;;;0.00;0.00;;;8.40;100.00;;;;;;5059333;28;20063;-73
2024/04/02 05:23:48;;;;;;;0.00;0.00;;;8.40;100.00;;;;;;5082645;28;20055;-73
2024/04/02 05:26:14;;;;;;;0.00;0.00;;;8.40;100.00;;;;;;5084591;28;20047;-72
2024/04/02 05:28:40;;;;;;;0.00;0.00;;;8.40;100.00;;;;;;5081333;28;20040;-71
2024/04/02 05:31:07;;;;;;;0.00;0.00;;;8.50;100.00;;;;;;5064732;28;20051;-71
2024/04/02 05:33:33;;;;;;;0.00;0.00;;;8.50;100.00;;;;;;5065999;28;20051;-72
2024/04/02 05:36:00;;;;;;;0.00;0.00;;;8.50;100.00;;;;;;5065575;28;21353;-72
2024/04/02 05:38:26;;;;;;;0.00;0.00;;;8.50;100.00;;;;;;5062061;28;20051;-72
2024/04/02 05:40:53;;;;;;;0.00;0.00;;;8.50;100.00;;;;;;5079884;28;20047;-73
2024/04/02 05:43:18;;;;;;;0.00;0.00;;;8.50;100.00;;;;;;5081837;28;20156;-72
2024/04/02 05:45:44;;;;;;;0.32;0.32;;;8.60;100.00;;;;;;5082907;28;20063;-73
2024/04/02 05:48:10;;;;;;;0.00;0.00;;;8.60;100.00;;;;;;5084213;28;20047;-73
2024/04/02 05:50:36;;;;;;;0.08;0.08;;;8.60;100.00;;;;;;5082008;28;20071;-73
2024/04/02 05:53:02;;;;;;;0.00;0.00;;;8.60;100.00;;;;;;5082232;28;20052;-73
2024/04/02 05:55:28;;;;;;;0.00;0.00;;;8.60;100.00;;;;;;5083253;28;20559;-73
2024/04/02 05:57:57;;;;;;;0.00;0.00;;;8.60;100.00;;;;;;5083987;28;20125;-74
2024/04/02 06:00:23;;;;;;;0.10;0.10;;;8.60;100.00;;;;;;5085516;28;20051;-71
2024/04/02 06:02:49;;;;;;;0.00;0.00;;;8.60;100.00;;;;;;5086428;28;20066;-73
2024/04/02 06:05:16;;;;;;;0.00;0.00;;;8.60;100.00;;;;;;5091351;28;20043;-73
2024/04/02 06:07:42;;;;;;;0.00;0.00;;;8.60;100.00;;;;;;5064239;28;20122;-74
2024/04/02 06:10:07;;;;;;;0.10;0.10;;;8.60;100.00;;;;;;5097070;28;20044;-74
2024/04/02 06:12:33;;;;;;;0.00;0.00;;;8.60;100.00;;;;;;5086799;28;20777;-74
2024/04/02 06:14:59;;;;;;;0.00;0.00;;;8.60;100.00;;;;;;5091856;28;20130;-75
2024/04/02 06:17:25;;;;;;;0.00;0.00;;;8.60;100.00;;;;;;5086919;28;20056;-74
2024/04/02 06:19:51;;;;;;;0.00;0.00;;;8.60;100.00;;;;;;5091319;28;20051;-75
2024/04/02 06:22:17;;;;;;;0.00;0.00;;;8.60;100.00;;;;;;5088041;28;20104;-73
2024/04/02 06:24:43;;;;;;;0.00;0.00;;;8.60;100.00;;;;;;5087838;28;20044;-74
2024/04/02 06:27:09;;;;;;;0.00;0.00;;;8.60;100.00;;;;;;5068382;28;20101;-74
2024/04/02 06:29:35;;;;;;;0.00;0.00;;;8.70;100.00;;;;;;5088669;28;20047;-74
2024/04/02 06:32:01;;;;;;;0.00;0.00;;;8.70;100.00;;;;;;5088278;28;20117;-74
2024/04/02 06:34:27;;;;;;;0.00;0.00;;;8.70;100.00;;;;;;5074345;28;20102;-74
2024/04/02 06:36:53;;;;;;;0.00;0.00;;;8.70;100.00;;;;;;5084961;28;20059;-74
2024/04/02 06:39:18;;;;;;;0.00;0.00;;;8.70;100.00;;;;;;5067804;28;20522;-74
2024/04/02 06:41:44;;;;;;;0.00;0.00;;;8.70;100.00;;;;;;5068524;28;20052;-73
2024/04/02 06:44:10;;;;;;;0.00;0.00;;;8.80;100.00;;;;;;5084931;28;20075;-74
2024/04/02 06:46:36;;;;;;;0.00;0.00;;;8.80;100.00;;;;;;5087881;28;20062;-73
2024/04/02 06:49:02;;;;;;;0.00;0.00;;;8.90;100.00;;;;;;5069636;28;20520;-74
2024/04/02 06:51:27;;;;;;;0.00;0.00;;;8.90;100.00;;;;;;5069288;28;20143;-73
2024/04/02 06:53:53;;;;;;;0.00;0.00;;;8.90;100.00;;;;;;5068637;28;20607;-73
2024/04/02 06:56:19;;;;;;;0.00;0.00;;;8.90;100.00;;;;;;5085958;28;20052;-73
2024/04/02 06:58:45;;;;;;;0.00;0.00;;;9.00;100.00;;;;;;5089759;28;20083;-72
2024/04/02 07:01:12;;;;;;;0.00;0.00;;;9.00;100.00;;;;;;5075988;28;20659;-72
2024/04/02 07:03:38;;;;;;;0.00;0.00;;;9.10;100.00;;;;;;5068565;28;20052;-71
2024/04/02 07:06:04;;;;;;;0.00;0.00;;;9.10;100.00;;;;;;5096705;28;20116;-73
2024/04/02 07:08:30;;;;;;;0.00;0.00;;;9.10;100.00;;;;;;5064864;28;20773;-75
2024/04/02 07:11:02;;;;;;;0.00;0.00;;;9.20;100.00;;;;;;5087176;28;20055;-71
2024/04/02 07:13:29;;;;;;;0.00;0.00;;;9.20;100.00;;;;;;5086131;28;20480;-72
2024/04/02 07:15:55;;;;;;;0.00;0.00;;;9.20;100.00;;;;;;5085922;28;20769;-73
2024/04/02 07:18:21;;;;;;;0.00;0.00;;;9.20;100.00;;;;;;5089670;28;20062;-74
2024/04/02 07:21:03;;;;;;;0.00;0.00;;;9.30;100.00;;;;;;5088188;28;20048;-74
2024/04/02 07:23:29;;;;;;;0.00;0.00;;;9.30;100.00;;;;;;5090658;28;20052;-74
2024/04/02 07:25:55;;;;;;;0.00;0.00;;;9.40;100.00;;;;;;5089266;28;20741;-73
2024/04/02 07:28:22;;;;;;;0.00;0.00;;;9.40;100.00;;;;;;5086308;28;20043;-73
2024/04/02 07:30:48;;;;;;;0.85;0.85;;;9.50;100.00;;;;;;5086015;28;20051;-73
2024/04/02 07:33:15;;;;;;;0.00;0.00;;;9.50;100.00;;;;;;5083861;28;20521;-74
2024/04/02 07:35:42;;;;;;;0.00;0.00;;;9.60;100.00;;;;;;5086629;28;20048;-72
2024/04/02 07:38:12;;;;;;;0.00;0.00;;;9.60;100.00;;;;;;5069751;28;20454;-71
2024/04/02 07:40:38;;;;;;;0.00;0.00;;;9.70;100.00;;;;;;5089955;28;20047;-71
2024/04/02 07:43:08;;;;;;;0.70;0.65;;;9.70;100.00;;;;;;5068294;28;20064;-71
2024/04/02 07:45:38;;;;;;;0.00;0.00;;;9.70;100.00;;;;;;5066574;28;20117;-71
2024/04/02 07:48:04;;;;;;;0.00;0.00;;;9.70;100.00;;;;;;5066665;28;20051;-71
2024/04/02 07:50:32;;;;;;;0.00;0.00;;;9.80;100.00;;;;;;5084858;28;20437;-73
2024/04/02 07:52:58;;;;;;;0.00;0.00;;;9.90;100.00;;;;;;5086846;28;20048;-73
2024/04/02 07:55:24;;;;;;;0.00;0.00;;;9.90;100.00;;;;;;5093928;28;20055;-73
2024/04/02 07:57:50;;;;;;;0.00;0.00;;;10.00;100.00;;;;;;5068999;28;20055;-73
2024/04/02 08:00:17;;;;;;;0.00;0.00;;;10.10;100.00;;;;;;5066759;28;20052;-71
2024/04/02 08:02:47;;;;;;;0.00;0.00;;;10.20;100.00;;;;;;5090286;28;20052;-70
2024/04/02 08:05:14;;;;;;;0.03;0.03;;;10.20;100.00;;;;;;5067695;28;20040;-70
2024/04/02 08:07:46;;;;;;;17.98;9.30;;;10.40;100.00;;;;;;5076954;28;20066;-71
2024/04/02 08:10:13;;;;;;;19.42;9.82;;;10.40;100.00;;;;;;5081066;28;20051;-71
2024/04/02 08:12:39;;;;;;;19.75;9.52;;;10.40;100.00;;;;;;5063959;28;20052;-71
2024/04/02 08:15:06;;;;;;;20.60;9.43;;;10.40;100.00;;;;;;5081896;28;20079;-70
2024/04/02 08:17:33;;;;;;;26.42;9.50;;;10.30;100.00;;;;;;5084367;28;20089;-72
2024/04/02 08:19:58;;;;;;;21.48;10.98;;;10.40;100.00;;;;;;5097933;28;20048;-74
2024/04/02 08:22:24;;;;;;;21.35;9.48;;;10.50;100.00;;;;;;5087606;28;20161;-69
2024/04/02 08:24:53;;;;;;;24.65;11.05;;;10.40;100.00;;;;;;5068647;28;20062;-70
2024/04/02 08:27:19;;;;;;;18.38;10.65;;;10.50;100.00;;;;;;5071261;28;20454;-71
2024/04/02 08:29:45;;;;;;;21.63;11.05;;;10.60;100.00;;;;;;5067080;28;20048;-71
2024/04/02 08:32:12;;;;;;;19.83;9.55;;;10.50;100.00;;;;;;5083859;28;20551;-71
2024/04/02 08:34:38;;;;;;;18.17;10.45;;;10.40;100.00;;;;;;5085830;28;20738;-73
2024/04/02 08:37:03;;;;;;;25.52;11.23;;;10.40;100.00;;;;;;5107312;27;20056;-71
2024/04/02 08:39:29;;;;;;;24.40;11.82;;;10.40;100.00;;;;;;5089333;28;20049;-73
2024/04/02 08:42:03;;;;;;;33.60;11.35;;;10.40;100.00;;;;;;5105682;27;20205;-73
2024/04/02 08:44:33;;;;;;;19.20;10.98;;;10.40;100.00;;;;;;5066524;28;20389;-72
2024/04/02 08:47:00;;;;;;;27.63;11.00;;;10.30;100.00;;;;;;5071034;28;20056;-72
2024/04/02 08:49:26;;;;;;;22.98;10.50;;;10.40;100.00;;;;;;5083061;28;20054;-72
2024/04/02 08:51:53;;;;;;;22.10;10.38;;;10.40;100.00;;;;;;5081955;28;20048;-72
2024/04/02 08:54:20;;;;;;;23.20;10.15;;;10.40;100.00;;;;;;5087047;28;20047;-73
2024/04/02 08:56:46;;;;;;;24.38;11.85;;;10.50;100.00;;;;;;5087090;28;20094;-72
2024/04/02 08:59:15;;;;;;;17.10;10.77;;;10.60;100.00;;;;;;5065942;28;20056;-71
2024/04/02 09:01:42;;;;;;;19.52;10.68;;;10.70;100.00;;;;;;5065657;28;20396;-72
2024/04/02 09:04:09;;;;;;;18.33;10.25;;;10.70;100.00;;;;;;5082480;28;20526;-72
2024/04/02 09:06:36;;;;;;;18.20;9.38;;;10.80;100.00;;;;;;5082479;28;20056;-72
2024/04/02 09:09:05;;;;;;;19.63;9.48;;;10.90;100.00;;;;;;5074676;28;20052;-72
2024/04/02 09:11:32;;;;;;;16.55;9.50;;;10.90;100.00;;;;;;5081499;28;20507;-71
2024/04/02 09:14:04;;;;;;;17.80;9.30;;;11.00;100.00;;;;;;5080728;28;20778;-71
2024/04/02 09:16:33;;;;;;;15.13;8.80;;;11.00;100.00;;;;;;5082634;28;20071;-71
2024/04/02 09:18:59;;;;;;;55.10;12.50;;;11.00;100.00;;;;;;5066285;28;20408;-71
2024/04/02 09:21:27;;;;;;;20.33;9.35;;;11.10;100.00;;;;;;5076275;28;20052;-72
2024/04/02 09:23:54;;;;;;;20.23;8.27;;;11.10;100.00;;;;;;5081245;28;20589;-71
2024/04/02 09:26:22;;;;;;;17.63;8.63;;;11.20;100.00;;;;;;5081703;28;20062;-71
2024/04/02 09:28:52;;;;;;;14.15;9.25;;;11.20;100.00;;;;;;5082112;28;20044;-71
2024/04/02 09:31:18;;;;;;;28.15;9.27;;;11.10;100.00;;;;;;5080498;28;20079;-72
2024/04/02 09:33:50;;;;;;;11.98;7.97;;;11.10;100.00;;;;;;5082131;28;20130;-72
2024/04/02 09:36:45;;;;;;;19.05;8.02;;;11.10;100.00;;;;;;5086754;28;20090;-72
2024/04/02 09:39:13;;;;;;;18.20;6.90;;;11.10;100.00;;;;;;5081708;28;20055;-72
2024/04/02 09:41:44;;;;;;;13.85;7.53;;;11.20;100.00;;;;;;5075965;28;20064;-73
2024/04/02 09:44:13;;;;;;;13.73;7.03;;;11.30;100.00;;;;;;5084677;28;20071;-73
2024/04/02 09:46:41;;;;;;;15.07;8.63;;;11.40;100.00;;;;;;5081379;28;20056;-73
2024/04/02 09:49:09;;;;;;;12.27;8.00;;;11.40;100.00;;;;;;5081727;28;20071;-72
2024/04/02 09:51:36;;;;;;;21.10;8.20;;;11.50;100.00;;;;;;5087754;28;20059;-71
2024/04/02 09:54:04;;;;;;;14.13;7.47;;;11.50;100.00;;;;;;5090637;28;20059;-72
2024/04/02 09:56:32;;;;;;;14.75;7.40;;;11.30;100.00;;;;;;5086645;28;20164;-71
2024/04/02 09:58:59;;;;;;;12.77;8.27;;;11.40;100.00;;;;;;5086146;28;20055;-72
2024/04/02 10:01:28;;;;;;;15.75;7.63;;;11.50;100.00;;;;;;5087561;28;20097;-72
2024/04/02 10:03:57;;;;;;;20.05;7.60;;;11.40;100.00;;;;;;5071489;28;20051;-71
2024/04/02 10:06:24;;;;;;;17.00;8.20;;;11.40;100.00;;;;;;5072646;28;20071;-72
2024/04/02 10:08:58;;;;;;;15.68;9.02;;;11.60;100.00;;;;;;5067607;28;20043;-72
2024/04/02 10:11:31;;;;;;;16.58;8.27;;;11.60;100.00;;;;;;5066308;28;20497;-73
2024/04/02 10:14:03;;;;;;;14.07;7.97;;;11.50;100.00;;;;;;5082383;28;20712;-71
2024/04/02 10:16:32;;;;;;;15.95;8.50;;;11.50;100.00;;;;;;5082015;28;20070;-71
2024/04/02 10:19:01;;;;;;;14.27;8.00;;;11.60;100.00;;;;;;5082830;28;20052;-72
2024/04/02 10:21:27;;;;;;;17.95;8.32;;;11.50;100.00;;;;;;5082542;28;20654;-71
2024/04/02 10:23:54;;;;;;;14.57;9.07;;;11.60;100.00;;;;;;5082459;28;20492;-72
2024/04/02 10:26:21;;;;;;;17.17;8.57;;;11.60;100.00;;;;;;5078305;28;20048;-71
2024/04/02 10:28:47;;;;;;;15.88;8.75;;;11.50;100.00;;;;;;5078264;28;20052;-71
2024/04/02 10:31:17;;;;;;;15.30;7.63;;;11.60;100.00;;;;;;5088914;28;20044;-72
2024/04/02 10:33:43;;;;;;;21.75;7.82;;;11.60;100.00;;;;;;5072925;28;20515;-72
2024/04/02 10:36:12;;;;;;;17.20;7.38;;;11.70;100.00;;;;;;5067277;28;20056;-71
2024/04/02 10:38:38;;;;;;;10.70;6.88;;;11.80;100.00;;;;;;5083176;28;20048;-73
2024/04/02 10:41:05;;;;;;;17.88;7.93;;;12.10;100.00;;;;;;5087823;28;20087;-72
2024/04/02 10:43:32;;;;;;;12.15;6.18;;;12.50;100.00;;;;;;5075682;28;20051;-72
2024/04/02 10:45:58;;;;;;;12.15;6.43;;;12.70;100.00;;;;;;5079779;28;20052;-72
2024/04/02 10:48:25;;;;;;;14.30;6.95;;;12.70;100.00;;;;;;5068868;28;20092;-72
2024/04/02 10:50:51;;;;;;;16.40;6.57;;;12.50;100.00;;;;;;5090443;28;20047;-72
2024/04/02 10:53:17;;;;;;;11.15;5.60;;;12.60;100.00;;;;;;5068176;28;20119;-72
2024/04/02 10:55:43;;;;;;;15.48;6.38;;;12.80;100.00;;;;;;5095143;28;20430;-72
2024/04/02 10:58:10;;;;;;;15.35;5.50;;;13.00;100.00;;;;;;5088970;28;20059;-72
2024/04/02 11:00:36;;;;;;;10.02;5.35;;;13.00;100.00;;;;;;5091504;28;20044;-72
2024/04/02 11:03:04;;;;;;;10.10;5.50;;;12.60;100.00;;;;;;5098364;28;20054;-71
2024/04/02 11:05:30;;;;;;;9.45;5.05;;;12.50;100.00;;;;;;5084601;28;20450;-72
2024/04/02 11:07:57;;;;;;;14.07;5.45;;;12.30;100.00;;;;;;5089059;28;20059;-72
2024/04/02 11:10:23;;;;;;;7.85;4.97;;;12.20;100.00;;;;;;5089226;28;20044;-71
2024/04/02 11:12:49;;;;;;;10.43;4.85;;;12.20;100.00;;;;;;5086965;28;20142;-72
2024/04/02 11:15:17;;;;;;;9.70;4.95;;;12.10;100.00;;;;;;5082994;28;20055;-71
2024/04/02 11:17:43;;;;;;;14.77;4.80;;;12.10;100.00;;;;;;5083240;28;20048;-72
2024/04/02 11:20:09;;;;;;;8.65;4.88;;;12.10;100.00;;;;;;5087187;28;20591;-71
2024/04/02 11:25:24;;;;;;;11.27;5.65;;;12.00;100.00;;;;;;5077343;28;20508;-71
2024/04/02 11:27:50;;;;;;;17.75;4.82;;;12.10;100.00;;;;;;5068019;28;20060;-72
2024/04/02 11:30:17;;;;;;;10.80;4.63;;;12.10;100.00;;;;;;5066995;28;20071;-72
2024/04/02 11:32:43;;;;;;;10.80;5.00;;;12.10;100.00;;;;;;5091438;28;20048;-71
2024/04/02 11:35:17;;;;;;;9.15;4.50;;;12.10;100.00;;;;;;5078635;28;20685;-71
2024/04/02 11:37:43;;;;;;;14.35;4.65;;;12.20;100.00;;;;;;5071600;28;20044;-71
2024/04/02 11:40:16;;;;;;;7.53;4.65;;;12.30;100.00;;;;;;5093333;28;20048;-72
2024/04/02 11:42:43;;;;;;;10.45;5.03;;;12.40;100.00;;;;;;5085433;28;20469;-71
2024/04/02 11:45:09;;;;;;;12.48;4.70;;;12.20;100.00;;;;;;5069859;28;20051;-71
2024/04/02 11:47:36;;;;;;;11.25;4.47;;;12.20;100.00;;;;;;5085509;28;20051;-72
2024/04/02 11:50:04;;;;;;;11.77;5.15;;;12.00;100.00;;;;;;5092726;28;20051;-73
2024/04/02 11:52:32;;;;;;;16.63;5.18;;;12.00;100.00;;;;;;5085199;28;20061;-72
2024/04/02 11:54:58;;;;;;;11.57;4.93;;;12.20;100.00;;;;;;5077148;28;20039;-72
2024/04/02 12:00:11;;;;;;;10.32;4.43;;;12.80;100.00;;;;;;5084102;28;20060;-72
2024/04/02 12:02:39;;;;;;;12.30;4.90;;;12.70;100.00;;;;;;5067996;28;20105;-71
2024/04/02 12:05:05;;;;;;;14.48;5.43;;;13.00;100.00;;;;;;5084922;28;20084;-72
2024/04/02 12:07:31;;;;;;;11.63;5.00;;;13.20;100.00;;;;;;5068017;28;20044;-73
2024/04/02 12:09:59;;;;;;;10.00;4.70;;;13.40;100.00;;;;;;5079189;28;20047;-69
2024/04/02 12:12:26;;;;;;;9.02;4.03;;;13.70;100.00;;;;;;5065362;28;20369;-71
2024/04/02 12:14:54;;;;;;;14.32;4.38;;;13.60;100.00;;;;;;5083827;28;20059;-72
2024/04/02 12:17:23;;;;;;;7.45;4.40;;;13.80;100.00;;;;;;5067627;28;20048;-72
2024/04/02 12:19:50;;;;;;;12.45;4.07;;;14.20;100.00;;;;;;5084038;28;20052;-72
2024/04/02 12:22:16;;;;;;;7.70;3.78;;;14.70;100.00;;;;;;5110517;27;20101;-72
2024/04/02 12:24:42;;;;;;;8.80;3.35;;;15.00;100.00;;;;;;5064218;28;20093;-75
2024/04/02 12:27:08;;;;;;;10.95;3.05;;;15.10;100.00;;;;;;5066312;28;20051;-73
2024/04/02 12:29:36;;;;;;;9.02;3.72;;;15.20;100.00;;;;;;5066645;28;20051;-73
2024/04/02 12:32:03;;;;;;;7.03;3.15;;;14.90;100.00;;;;;;5075501;28;20515;-74
2024/04/02 12:34:29;;;;;;;8.27;3.40;;;14.70;100.00;;;;;;5083324;28;20052;-74
2024/04/02 12:36:56;;;;;;;4.93;3.03;;;14.70;100.00;;;;;;5074757;28;20081;-72
2024/04/02 12:39:22;;;;;;;12.27;3.28;;;14.90;100.00;;;;;;5083760;28;20503;-74
2024/04/02 12:41:48;;;;;;;13.55;2.92;;;14.90;100.00;;;;;;5084416;28;20048;-73
2024/04/02 12:44:14;;;;;;;6.93;2.70;;;15.00;100.00;;;;;;5079920;28;20056;-74